Time,TemperatureF,DewpointF,PressureIn,WindDirection,WindDirectionDegrees,WindSpeedMPH,WindSpeedGustMPH,Humidity,HourlyPrecipIn,Conditions,Clouds,dailyrainin,SoftwareType,DateUTC
2013-01-15 00:00:00,46.5,41.9,30.22,North,0,0.0,5.3,84,0.04,,---,0.00,VWS V13.00,2013-01-15 05:00:00,
2013-01-15 00:01:00,46.2,41.6,30.22,North,0,4.4,4.4,84,0.04,,---,0.00,VWS V13.00,2013-01-15 05:01:00,
2013-01-15 00:02:00,46.2,41.6,30.22,North,0,4.4,4.4,84,0.04,,---,0.00,VWS V13.00,2013-01-15 05:02:00,
2013-01-15 00:07:00,46.0,41.4,30.21,North,0,4.0,4.4,84,0.04,,---,0.00,VWS V13.00,2013-01-15 05:07:00,
2013-01-15 00:13:00,46.0,41.8,30.22,North,0,5.1,5.1,85,0.06,,---,0.02,VWS V13.00,2013-01-15 05:13:00,
2013-01-15 00:18:00,45.8,41.5,30.22,NNE,22,3.3,5.1,85,0.06,,---,0.04,VWS V13.00,2013-01-15 05:18:00,
2013-01-15 00:20:00,45.6,41.7,30.22,North,0,0.0,5.1,86,0.06,,---,0.04,VWS V13.00,2013-01-15 05:20:00,
2013-01-15 00:23:00,45.6,41.7,30.22,NNW,338,1.7,1.7,86,0.06,,---,0.04,VWS V13.00,2013-01-15 05:23:00,
2013-01-15 00:28:00,45.6,41.4,30.22,East,90,2.0,2.0,85,0.06,,---,0.04,VWS V13.00,2013-01-15 05:28:00,
2013-01-15 00:33:00,45.5,41.3,30.22,North,0,5.3,5.3,85,0.06,,---,0.04,VWS V13.00,2013-01-15 05:33:00,
2013-01-15 00:38:00,45.1,40.9,30.21,NNE,22,1.1,5.3,85,0.08,,---,0.06,VWS V13.00,2013-01-15 05:38:00,
2013-01-15 00:40:00,44.9,40.7,30.21,NE,45,0.0,5.3,85,0.06,,---,0.06,VWS V13.00,2013-01-15 05:40:00,
2013-01-15 00:42:00,44.7,40.5,30.21,NE,45,0.0,0.0,85,0.08,,---,0.08,VWS V13.00,2013-01-15 05:42:00,
2013-01-15 00:47:00,44.6,40.4,30.21,WNW,292,0.0,0.0,85,0.08,,---,0.08,VWS V13.00,2013-01-15 05:47:00,
2013-01-15 00:52:00,44.4,40.5,30.21,East,90,4.6,4.6,86,0.10,,---,0.10,VWS V13.00,2013-01-15 05:52:00,
2013-01-15 00:57:00,44.4,40.5,30.21,ENE,68,0.0,4.6,86,0.10,,---,0.10,VWS V13.00,2013-01-15 05:57:00,
2013-01-15 01:00:00,44.4,40.5,30.21,East,90,1.7,4.6,86,0.12,,---,0.12,VWS V13.00,2013-01-15 06:00:00,
2013-01-15 01:02:00,44.4,40.5,30.20,NNW,338,0.2,1.7,86,0.12,,---,0.12,VWS V13.00,2013-01-15 06:02:00,
2013-01-15 01:07:00,43.8,39.9,30.21,NNE,22,3.3,3.3,86,0.10,,---,0.12,VWS V13.00,2013-01-15 06:07:00,
2013-01-15 01:12:00,43.5,39.6,30.21,NNW,338,6.9,6.9,86,0.10,,---,0.12,VWS V13.00,2013-01-15 06:12:00,
2013-01-15 01:17:00,43.5,39.6,30.23,NNW,338,0.0,6.9,86,0.08,,---,0.12,VWS V13.00,2013-01-15 06:17:00,
2013-01-15 01:20:00,43.5,39.6,30.23,North,0,0.0,6.9,86,0.08,,---,0.12,VWS V13.00,2013-01-15 06:20:00,
2013-01-15 01:22:00,43.5,39.6,30.23,NNW,338,0.0,0.0,86,0.08,,---,0.12,VWS V13.00,2013-01-15 06:22:00,
2013-01-15 01:27:00,43.3,39.4,30.22,North,0,4.0,4.0,86,0.10,,---,0.14,VWS V13.00,2013-01-15 06:27:00,
2013-01-15 01:33:00,43.1,39.2,30.23,NNW,338,0.0,4.0,86,0.08,,---,0.14,VWS V13.00,2013-01-15 06:33:00,
2013-01-15 01:38:00,42.9,39.0,30.23,NNE,22,6.0,6.2,86,0.08,,---,0.14,VWS V13.00,2013-01-15 06:38:00,
2013-01-15 01:40:00,42.6,38.7,30.23,NNE,22,1.7,6.2,86,0.06,,---,0.14,VWS V13.00,2013-01-15 06:40:00,
2013-01-15 01:43:00,42.6,38.7,30.23,NE,45,1.7,1.7,86,0.08,,---,0.16,VWS V13.00,2013-01-15 06:43:00,
2013-01-15 01:48:00,42.4,38.5,30.23,NE,45,0.0,6.4,86,0.06,,---,0.16,VWS V13.00,2013-01-15 06:48:00,
2013-01-15 01:53:00,42.0,38.1,30.22,NNE,22,0.0,6.4,86,0.06,,---,0.16,VWS V13.00,2013-01-15 06:53:00,
2013-01-15 01:58:00,41.9,38.0,30.22,East,90,2.4,6.4,86,0.04,,---,0.16,VWS V13.00,2013-01-15 06:58:00,
2013-01-15 02:00:00,41.7,37.8,30.21,North,0,4.4,6.4,86,0.04,,---,0.16,VWS V13.00,2013-01-15 07:00:00,
2013-01-15 02:03:00,41.5,37.6,30.21,North,0,4.4,4.4,86,0.04,,---,0.16,VWS V13.00,2013-01-15 07:03:00,
2013-01-15 02:08:00,41.0,37.1,30.21,East,90,0.0,10.9,86,0.04,,---,0.16,VWS V13.00,2013-01-15 07:08:00,
2013-01-15 02:12:00,40.8,36.9,30.21,NE,45,0.0,10.9,86,0.04,,---,0.16,VWS V13.00,2013-01-15 07:12:00,
2013-01-15 02:18:00,41.0,37.4,30.23,ENE,68,0.0,10.9,87,0.06,,---,0.18,VWS V13.00,2013-01-15 07:18:00,
2013-01-15 02:20:00,41.0,37.4,30.23,NE,45,0.0,10.9,87,0.06,,---,0.18,VWS V13.00,2013-01-15 07:20:00,
2013-01-15 02:22:00,41.1,37.5,30.23,NE,45,0.0,0.0,87,0.06,,---,0.18,VWS V13.00,2013-01-15 07:22:00,
2013-01-15 02:27:00,41.1,37.5,30.23,NE,45,2.9,2.9,87,0.04,,---,0.18,VWS V13.00,2013-01-15 07:27:00,
2013-01-15 02:32:00,41.0,37.4,30.22,ENE,68,0.0,2.9,87,0.04,,---,0.18,VWS V13.00,2013-01-15 07:32:00,
2013-01-15 02:37:00,40.8,37.2,30.22,NNE,22,3.3,3.3,87,0.04,,---,0.18,VWS V13.00,2013-01-15 07:37:00,
2013-01-15 02:40:00,40.8,37.2,30.22,NE,45,0.0,3.3,87,0.02,,---,0.18,VWS V13.00,2013-01-15 07:40:00,
2013-01-15 02:42:00,40.8,37.2,30.21,East,90,0.0,0.0,87,0.02,,---,0.18,VWS V13.00,2013-01-15 07:42:00,
2013-01-15 02:47:00,40.8,37.2,30.22,NE,45,6.7,6.7,87,0.02,,---,0.18,VWS V13.00,2013-01-15 07:47:00,
2013-01-15 02:52:00,40.8,37.2,30.22,ESE,112,5.1,6.7,87,0.02,,---,0.18,VWS V13.00,2013-01-15 07:52:00,
2013-01-15 02:57:00,40.8,37.5,30.21,ENE,68,5.5,6.7,88,0.02,,---,0.18,VWS V13.00,2013-01-15 07:57:00,
2013-01-15 03:00:00,40.8,37.5,30.21,ENE,68,3.5,6.7,88,0.02,,---,0.18,VWS V13.00,2013-01-15 08:00:00,
2013-01-15 03:02:00,40.6,37.3,30.21,ENE,68,3.5,3.5,88,0.02,,---,0.18,VWS V13.00,2013-01-15 08:02:00,
2013-01-15 03:07:00,40.6,37.3,30.21,SE,135,3.3,3.5,88,0.04,,---,0.20,VWS V13.00,2013-01-15 08:07:00,
2013-01-15 03:12:00,40.6,37.3,30.21,ESE,112,0.6,3.5,88,0.04,,---,0.20,VWS V13.00,2013-01-15 08:12:00,
2013-01-15 16:57:00,38.8,35.6,30.22,NE,45,0.0,0.0,88,0.00,,---,0.43,VWS V13.00,2013-01-15 21:57:00,
2013-01-15 17:02:00,38.8,35.6,30.23,NNE,22,0.0,0.0,88,0.00,,---,0.43,VWS V13.00,2013-01-15 22:02:00,
2013-01-15 17:07:00,38.8,35.6,30.24,NNW,338,0.0,0.0,88,0.00,,---,0.43,VWS V13.00,2013-01-15 22:07:00,
2013-01-15 17:12:00,38.8,35.6,30.25,NNW,338,0.0,0.0,88,0.00,,---,0.43,VWS V13.00,2013-01-15 22:12:00,
2013-01-15 17:17:00,38.8,35.6,30.24,NNW,338,0.0,0.0,88,0.00,,---,0.43,VWS V13.00,2013-01-15 22:17:00,
2013-01-15 17:22:00,38.8,35.6,30.25,NNW,338,0.0,0.0,88,0.00,,---,0.43,VWS V13.00,2013-01-15 22:22:00,
2013-01-15 17:27:00,38.8,35.6,30.24,NNW,338,0.0,0.0,88,0.00,,---,0.43,VWS V13.00,2013-01-15 22:27:00,
2013-01-15 17:32:00,38.8,35.6,30.24,NNW,338,0.0,0.0,88,0.00,,---,0.43,VWS V13.00,2013-01-15 22:32:00,
2013-01-15 17:37:00,38.8,35.6,30.24,NNW,338,0.0,0.0,88,0.00,,---,0.43,VWS V13.00,2013-01-15 22:37:00,
2013-01-15 17:42:00,39.0,35.8,30.24,NE,45,0.0,0.0,88,0.00,,---,0.43,VWS V13.00,2013-01-15 22:42:00,
2013-01-15 17:47:00,39.0,35.8,30.24,North,0,0.0,0.0,88,0.00,,---,0.43,VWS V13.00,2013-01-15 22:47:00,
2013-01-15 17:52:00,39.0,35.8,30.23,ESE,112,0.0,0.0,88,0.00,,---,0.43,VWS V13.00,2013-01-15 22:52:00,
2013-01-15 17:57:00,39.0,35.8,30.23,NE,45,0.6,0.6,88,0.00,,---,0.43,VWS V13.00,2013-01-15 22:57:00,
2013-01-15 18:02:00,39.0,35.8,30.24,NE,45,0.0,0.0,88,0.00,,---,0.43,VWS V13.00,2013-01-15 23:02:00,
2013-01-15 18:07:00,39.0,35.8,30.24,NNE,22,0.0,1.7,88,0.00,,---,0.43,VWS V13.00,2013-01-15 23:07:00,
2013-01-15 18:12:00,39.0,35.8,30.23,North,0,0.0,1.7,88,0.00,,---,0.43,VWS V13.00,2013-01-15 23:12:00,
2013-01-15 18:17:00,39.0,35.8,30.23,ENE,68,0.0,1.7,88,0.00,,---,0.43,VWS V13.00,2013-01-15 23:17:00,
2013-01-15 18:22:00,38.8,35.6,30.24,NNE,22,0.0,2.6,88,0.00,,---,0.43,VWS V13.00,2013-01-15 23:22:00,
2013-01-15 18:27:00,38.8,35.6,30.25,North,0,0.0,2.6,88,0.00,,---,0.43,VWS V13.00,2013-01-15 23:27:00,
2013-01-15 18:32:00,39.0,35.8,30.24,NNW,338,0.0,2.6,88,0.00,,---,0.43,VWS V13.00,2013-01-15 23:32:00,
2013-01-15 18:37:00,39.0,35.8,30.24,ESE,112,0.0,2.6,88,0.00,,---,0.43,VWS V13.00,2013-01-15 23:37:00,
2013-01-15 18:42:00,39.0,35.8,30.22,NNE,22,0.0,0.0,88,0.00,,---,0.43,VWS V13.00,2013-01-15 23:42:00,
2013-01-15 18:47:00,39.0,35.8,30.21,ESE,112,0.0,0.0,88,0.00,,---,0.43,VWS V13.00,2013-01-15 23:47:00,
2013-01-15 18:52:00,38.6,35.4,30.21,NE,45,2.2,2.6,88,0.00,,---,0.43,VWS V13.00,2013-01-15 23:52:00,
2013-01-15 18:57:00,38.4,35.2,30.21,East,90,0.0,2.6,88,0.00,,---,0.43,VWS V13.00,2013-01-15 23:57:00,
2013-01-15 19:02:00,38.4,35.2,30.21,East,90,0.0,0.0,88,0.00,,---,0.43,VWS V13.00,2013-01-16 00:02:00,
2013-01-15 19:07:00,38.3,35.1,30.19,ENE,68,0.0,0.0,88,0.00,,---,0.43,VWS V13.00,2013-01-16 00:07:00,
2013-01-15 19:12:00,38.3,35.1,30.21,North,0,3.1,3.1,88,0.00,,---,0.43,VWS V13.00,2013-01-16 00:12:00,
2013-01-15 19:17:00,38.4,35.2,30.23,NW,315,0.0,3.1,88,0.00,,---,0.43,VWS V13.00,2013-01-16 00:17:00,
2013-01-15 19:22:00,38.8,35.6,30.24,North,0,4.9,4.9,88,0.00,,---,0.43,VWS V13.00,2013-01-16 00:22:00,
2013-01-15 19:27:00,38.8,35.6,30.23,NE,45,0.0,4.9,88,0.00,,---,0.43,VWS V13.00,2013-01-16 00:27:00,
2013-01-15 19:32:00,38.8,35.6,30.23,ENE,68,0.0,4.9,88,0.00,,---,0.43,VWS V13.00,2013-01-16 00:32:00,
2013-01-15 19:37:00,38.8,35.6,30.23,NE,45,0.0,4.9,88,0.00,,---,0.43,VWS V13.00,2013-01-16 00:37:00,
2013-01-15 19:42:00,38.8,35.3,30.22,NE,45,0.0,0.0,87,0.00,,---,0.43,VWS V13.00,2013-01-16 00:42:00,
2013-01-15 19:47:00,38.4,34.9,30.23,North,0,1.1,3.3,87,0.00,,---,0.43,VWS V13.00,2013-01-16 00:47:00,
2013-01-15 19:52:00,38.8,35.6,30.23,NNE,22,2.4,3.3,88,0.00,,---,0.43,VWS V13.00,2013-01-16 00:52:00,
2013-01-15 19:57:00,38.8,35.3,30.22,NE,45,0.0,3.3,87,0.00,,---,0.43,VWS V13.00,2013-01-16 00:57:00,
2013-01-15 20:02:00,38.6,35.1,30.22,East,90,0.0,0.0,87,0.00,,---,0.43,VWS V13.00,2013-01-16 01:02:00,
2013-01-15 20:07:00,38.4,34.9,30.22,NNE,22,0.0,1.7,87,0.00,,---,0.43,VWS V13.00,2013-01-16 01:07:00,
2013-01-15 20:12:00,38.6,35.1,30.23,North,0,2.6,2.6,87,0.00,,---,0.43,VWS V13.00,2013-01-16 01:12:00,
2013-01-15 20:17:00,38.6,35.1,30.23,ESE,112,0.0,2.6,87,0.00,,---,0.43,VWS V13.00,2013-01-16 01:17:00,
2013-01-15 20:22:00,38.4,34.9,30.23,WNW,292,4.2,4.2,87,0.00,,---,0.43,VWS V13.00,2013-01-16 01:22:00,
2013-01-15 20:27:00,38.8,35.3,30.23,ENE,68,0.0,4.2,87,0.00,,---,0.43,VWS V13.00,2013-01-16 01:27:00,
2013-01-15 20:32:00,38.8,35.3,30.22,ESE,112,0.0,4.2,87,0.00,,---,0.43,VWS V13.00,2013-01-16 01:32:00,
2013-01-15 20:37:00,38.8,35.3,30.22,NE,45,0.0,4.2,87,0.00,,---,0.43,VWS V13.00,2013-01-16 01:37:00,
2013-01-15 20:42:00,38.8,35.3,30.21,NE,45,0.0,0.0,87,0.00,,---,0.43,VWS V13.00,2013-01-16 01:42:00,
2013-01-15 20:47:00,38.4,34.9,30.21,North,0,7.6,7.6,87,0.00,,---,0.43,VWS V13.00,2013-01-16 01:47:00,
2013-01-15 20:52:00,38.4,34.9,30.21,North,0,0.0,7.6,87,0.00,,---,0.43,VWS V13.00,2013-01-16 01:52:00,
2013-01-15 20:57:00,38.4,34.9,30.20,East,90,0.0,7.6,87,0.00,,---,0.43,VWS V13.00,2013-01-16 01:57:00,
2013-01-15 21:02:00,38.3,34.8,30.20,SE,135,0.2,0.2,87,0.00,,---,0.43,VWS V13.00,2013-01-16 02:02:00,
2013-01-15 21:07:00,38.1,34.6,30.21,SE,135,0.2,0.2,87,0.00,,---,0.43,VWS V13.00,2013-01-16 02:07:00,
2013-01-15 21:12:00,38.1,34.6,30.20,SE,135,0.2,0.2,87,0.00,,---,0.43,VWS V13.00,2013-01-16 02:12:00,
2013-01-15 21:17:00,38.1,34.6,30.20,SE,135,0.2,0.2,87,0.00,,---,0.43,VWS V13.00,2013-01-16 02:17:00,
2013-01-15 21:22:00,38.1,34.6,30.20,SE,135,0.2,0.2,87,0.00,,---,0.43,VWS V13.00,2013-01-16 02:22:00,
2013-01-15 21:27:00,37.9,34.4,30.20,NNE,22,0.0,0.2,87,0.00,,---,0.43,VWS V13.00,2013-01-16 02:27:00,
2013-01-15 21:32:00,37.9,34.4,30.20,NNE,22,0.0,0.2,87,0.00,,---,0.43,VWS V13.00,2013-01-16 02:32:00,
2013-01-15 21:37:00,37.5,33.7,30.20,ESE,112,0.0,0.2,86,0.00,,---,0.43,VWS V13.00,2013-01-16 02:37:00,
2013-01-15 21:42:00,37.4,33.6,30.20,ESE,112,4.0,4.0,86,0.00,,---,0.43,VWS V13.00,2013-01-16 02:42:00,
2013-01-15 21:47:00,37.2,33.4,30.21,NNE,22,0.0,4.0,86,0.00,,---,0.43,VWS V13.00,2013-01-16 02:47:00,
2013-01-15 21:52:00,37.2,33.7,30.20,NNE,22,0.0,4.0,87,0.00,,---,0.43,VWS V13.00,2013-01-16 02:52:00,
2013-01-15 21:57:00,37.2,33.7,30.18,NNE,22,0.0,4.0,87,0.00,,---,0.43,VWS V13.00,2013-01-16 02:57:00,
2013-01-15 22:02:00,37.2,33.4,30.18,NNE,22,0.0,0.0,86,0.02,,---,0.45,VWS V13.00,2013-01-16 03:02:00,
2013-01-15 22:07:00,36.8,33.3,30.16,NNE,22,2.0,2.0,87,0.04,,---,0.47,VWS V13.00,2013-01-16 03:07:00,
2013-01-15 22:12:00,36.6,33.1,30.16,NE,45,1.3,2.0,87,0.04,,---,0.47,VWS V13.00,2013-01-16 03:12:00,
2013-01-15 22:17:00,36.5,33.0,30.17,East,90,0.8,2.0,87,0.04,,---,0.47,VWS V13.00,2013-01-16 03:17:00,
2013-01-15 22:22:00,36.5,33.0,30.17,East,90,0.8,0.8,87,0.04,,---,0.47,VWS V13.00,2013-01-16 03:22:00,
2013-01-15 22:27:00,36.5,33.0,30.18,East,90,0.8,0.8,87,0.04,,---,0.47,VWS V13.00,2013-01-16 03:27:00,
2013-01-15 22:32:00,36.5,33.3,30.17,East,90,0.8,0.8,88,0.04,,---,0.47,VWS V13.00,2013-01-16 03:32:00,
2013-01-15 22:37:00,36.3,33.1,30.18,NE,45,0.0,4.0,88,0.06,,---,0.49,VWS V13.00,2013-01-16 03:37:00,
2013-01-15 22:42:00,36.3,33.1,30.18,NE,45,0.0,0.0,88,0.06,,---,0.49,VWS V13.00,2013-01-16 03:42:00,
2013-01-15 22:47:00,36.5,33.3,30.18,North,0,0.0,0.0,88,0.06,,---,0.49,VWS V13.00,2013-01-16 03:47:00,
2013-01-15 22:52:00,36.5,33.3,30.17,NE,45,0.6,0.6,88,0.08,,---,0.51,VWS V13.00,2013-01-16 03:52:00,
2013-01-15 22:57:00,36.3,33.1,30.18,NNW,338,0.0,0.6,88,0.08,,---,0.53,VWS V13.00,2013-01-16 03:57:00,
2013-01-15 23:02:00,36.5,33.3,30.17,ENE,68,0.0,0.0,88,0.10,,---,0.55,VWS V13.00,2013-01-16 04:02:00,
2013-01-15 23:07:00,36.3,33.1,30.15,ESE,112,0.6,0.6,88,0.10,,---,0.57,VWS V13.00,2013-01-16 04:07:00,
2013-01-15 23:12:00,36.3,33.1,30.15,NE,45,0.0,3.8,88,0.10,,---,0.57,VWS V13.00,2013-01-16 04:12:00,
2013-01-15 23:17:00,36.3,33.1,30.15,East,90,1.5,3.8,88,0.12,,---,0.59,VWS V13.00,2013-01-16 04:17:00,
2013-01-15 23:22:00,36.1,32.9,30.13,ENE,68,0.0,0.0,88,0.12,,---,0.59,VWS V13.00,2013-01-16 04:22:00,
2013-01-15 23:27:00,35.9,33.0,30.13,ENE,68,5.8,5.8,89,0.12,,---,0.59,VWS V13.00,2013-01-16 04:27:00,
2013-01-15 23:32:00,35.9,33.0,30.13,NW,315,4.6,5.8,89,0.10,,---,0.59,VWS V13.00,2013-01-16 04:32:00,
2013-01-15 23:37:00,35.9,33.0,30.13,ENE,68,1.7,5.8,89,0.12,,---,0.61,VWS V13.00,2013-01-16 04:37:00,
2013-01-15 23:42:00,35.9,33.0,30.12,ENE,68,1.7,1.7,89,0.12,,---,0.61,VWS V13.00,2013-01-16 04:42:00,
2013-01-15 23:47:00,35.9,33.0,30.13,ENE,68,1.7,1.7,89,0.10,,---,0.61,VWS V13.00,2013-01-16 04:47:00,
2013-01-15 23:52:00,35.9,33.0,30.12,ENE,68,1.7,1.7,89,0.10,,---,0.61,VWS V13.00,2013-01-16 04:52:00,
2013-01-15 23:57:00,36.1,33.2,30.11,North,0,4.0,4.0,89,0.06,,---,0.61,VWS V13.00,2013-01-16 04:57:00,